createdAt,value
2023-05-03T00:00:02.674Z,26.4
2023-05-03T00:10:03.200Z,26.4
2023-05-03T00:20:03.341Z,26.3
2023-05-03T00:30:03.503Z,26.3
2023-05-03T00:40:02.633Z,26.3
2023-05-03T00:50:02.970Z,26.4
2023-05-03T01:00:02.888Z,26.2
2023-05-03T01:10:02.918Z,26.2
2023-05-03T01:20:03.088Z,26.3
2023-05-03T01:30:03.093Z,26.4
2023-05-03T01:40:03.188Z,26.4
2023-05-03T01:50:03.231Z,26.6
2023-05-03T02:00:03.423Z,27
2023-05-03T02:10:02.418Z,27.4
2023-05-03T02:20:02.607Z,27.6
2023-05-03T02:30:02.752Z,27.9
2023-05-03T02:40:02.868Z,28.6
2023-05-03T02:50:03.045Z,29.1
2023-05-03T03:00:03.050Z,29.4
2023-05-03T03:10:03.184Z,29.7
2023-05-03T03:20:03.388Z,29
2023-05-03T03:30:02.497Z,29.1
2023-05-03T03:40:02.499Z,29.2
2023-05-03T03:50:03.418Z,29.4
2023-05-03T04:00:02.415Z,29.4
2023-05-03T04:10:02.316Z,29.5
2023-05-03T04:20:02.453Z,29.6
2023-05-03T04:30:03.730Z,29.4
2023-05-03T04:40:02.685Z,29.5
2023-05-03T04:50:02.725Z,29.7
2023-05-03T05:00:02.679Z,29.6
2023-05-03T05:10:02.589Z,29.6
2023-05-03T05:20:02.730Z,29.6
2023-05-03T05:30:02.850Z,29.8
2023-05-03T05:40:02.841Z,30
2023-05-03T05:50:04.505Z,30.1
2023-05-03T06:00:02.779Z,30.1
2023-05-03T06:10:02.984Z,30.1
2023-05-03T06:20:03.286Z,30.1
2023-05-03T06:30:03.255Z,30.2
2023-05-03T06:40:03.321Z,30.4
2023-05-03T06:50:03.387Z,30.1
2023-05-03T07:00:03.361Z,30.3
2023-05-03T07:10:03.451Z,30.5
2023-05-03T07:20:02.646Z,30.4
2023-05-03T07:30:02.822Z,30.3
2023-05-03T07:40:02.962Z,30.5
2023-05-03T07:50:02.983Z,30.4
2023-05-03T08:00:03.081Z,30.5
2023-05-03T08:10:03.076Z,30.8
2023-05-03T08:20:03.358Z,30.5
2023-05-03T08:30:03.386Z,30.1
2023-05-03T08:40:03.397Z,30.1
2023-05-03T08:50:03.374Z,30.1
2023-05-03T09:00:02.642Z,30
2023-05-03T09:10:02.952Z,29.9
2023-05-03T09:20:03.101Z,29.9
2023-05-03T09:30:03.055Z,29.9
2023-05-03T09:40:03.099Z,30
2023-05-03T09:50:03.062Z,29.9
2023-05-03T10:00:02.854Z,30
2023-05-03T10:10:02.579Z,29.9
2023-05-03T10:20:02.572Z,29.9
2023-05-03T10:30:02.569Z,30
2023-05-03T10:40:02.331Z,29.9
2023-05-03T10:50:02.930Z,29.8
2023-05-03T11:00:02.629Z,29.9
2023-05-03T11:10:02.355Z,29.9
2023-05-03T11:20:03.162Z,29.8
2023-05-03T11:30:02.938Z,29.8
2023-05-03T11:40:02.750Z,29.7
2023-05-03T11:50:02.451Z,29.5
2023-05-03T12:00:03.360Z,28.9
2023-05-03T12:30:02.769Z,28.4
2023-05-03T12:40:24.706Z,28.4
2023-05-03T12:50:06.012Z,28.3
2023-05-03T13:00:03.830Z,28.1
2023-05-03T13:20:03.326Z,28.1
2023-05-03T13:30:03.121Z,28
2023-05-03T13:40:03.121Z,27.9
2023-05-03T13:50:03.418Z,27.8
2023-05-03T14:00:02.858Z,27.9
2023-05-03T14:10:03.152Z,27.9
2023-05-03T14:20:02.677Z,27.8
2023-05-03T14:30:02.791Z,27.6
2023-05-03T14:40:02.956Z,27.6
2023-05-03T14:50:03.070Z,27.4
2023-05-03T15:00:03.159Z,27.5
2023-05-03T15:10:03.412Z,27.3
2023-05-03T15:20:02.894Z,27.4
2023-05-03T15:30:03.219Z,27.2
2023-05-03T15:40:03.162Z,27.2
2023-05-03T15:50:03.195Z,27.1
2023-05-03T16:00:04.924Z,27.2
2023-05-03T16:10:03.006Z,27.1
2023-05-03T16:20:03.187Z,27.1
2023-05-03T16:30:03.493Z,29.2
2023-05-03T16:40:02.633Z,29.4
2023-05-03T16:50:02.691Z,29.5
2023-05-03T17:00:04.883Z,29.6
2023-05-03T17:10:03.453Z,29.4
2023-05-03T17:20:03.571Z,29.6
2023-05-03T17:30:02.641Z,29.6
2023-05-03T17:40:02.829Z,29.6
2023-05-03T17:50:02.914Z,28.3
2023-05-03T18:00:02.994Z,28.2
2023-05-03T18:10:02.962Z,27.8
2023-05-03T18:20:03.144Z,27.8
2023-05-03T18:30:03.035Z,27.6
2023-05-03T18:40:02.936Z,27.6
2023-05-03T18:50:03.053Z,27.4
2023-05-03T19:00:02.943Z,27.3
2023-05-03T19:10:03.022Z,27.2
2023-05-03T19:20:03.304Z,27.1
2023-05-03T19:30:03.465Z,26.9
2023-05-03T19:40:02.602Z,26.9
2023-05-03T19:50:02.609Z,26.8
2023-05-03T20:00:02.620Z,26.8
2023-05-03T20:10:02.730Z,26.8
2023-05-03T20:20:02.950Z,26.7
2023-05-03T20:30:03.195Z,26.6
2023-05-03T20:40:03.102Z,26.6
2023-05-03T20:50:02.839Z,26.6
2023-05-03T21:00:02.923Z,26.5
2023-05-03T21:10:03.096Z,26.5
2023-05-03T21:20:02.918Z,26.5
2023-05-03T21:30:03.026Z,26.5
2023-05-03T21:40:03.222Z,26.4
2023-05-03T21:50:03.087Z,26.4
2023-05-03T22:00:03.235Z,26.4
2023-05-03T22:10:03.408Z,26.5
2023-05-03T22:20:02.690Z,26.4
2023-05-03T22:30:02.771Z,26.4
2023-05-03T22:40:02.974Z,26.4
2023-05-03T22:50:03.201Z,26.4
2023-05-03T23:00:03.226Z,26.2
2023-05-03T23:10:03.424Z,26.4
2023-05-03T23:20:02.651Z,26.4
2023-05-03T23:30:02.774Z,26.7
2023-05-03T23:40:03.060Z,27
2023-05-03T23:50:02.995Z,27.3
